createdAt,value
2017-07-05T00:01:55.549Z,7.78
2017-07-05T00:04:23.650Z,6.90
2017-07-05T00:06:51.806Z,8.82
2017-07-05T00:09:19.908Z,7.25
2017-07-05T00:11:48.058Z,6.90
2017-07-05T00:14:17.294Z,7.78
2017-07-05T00:16:46.157Z,6.93
2017-07-05T00:19:14.294Z,8.55
2017-07-05T00:21:42.388Z,8.23
2017-07-05T00:24:10.620Z,8.68
2017-07-05T00:26:38.712Z,11.73
2017-07-05T00:29:07.612Z,7.90
2017-07-05T00:31:35.714Z,8.43
2017-07-05T00:34:03.832Z,7.68
2017-07-05T00:36:31.940Z,10.02
2017-07-05T00:39:00.957Z,8.82
2017-07-05T00:41:30.297Z,9.30
2017-07-05T00:43:58.400Z,8.00
2017-07-05T00:46:26.497Z,8.68
2017-07-05T00:48:55.393Z,8.60
2017-07-05T00:51:23.521Z,8.30
2017-07-05T00:53:51.614Z,8.10
2017-07-05T00:56:19.873Z,9.70
2017-07-05T00:58:47.953Z,8.77
2017-07-05T01:01:16.081Z,9.02
2017-07-05T01:03:44.937Z,8.25
2017-07-05T01:06:13.029Z,7.95
2017-07-05T01:08:41.156Z,8.00
2017-07-05T01:11:09.391Z,9.15
2017-07-05T01:13:37.484Z,8.73
2017-07-05T01:16:06.376Z,8.15
2017-07-05T01:18:34.476Z,8.52
2017-07-05T01:21:02.620Z,10.18
2017-07-05T01:23:31.488Z,8.25
2017-07-05T01:25:59.597Z,7.22
2017-07-05T01:28:28.464Z,8.60
2017-07-05T01:30:56.593Z,7.62
2017-07-05T01:33:24.713Z,8.25
2017-07-05T01:35:52.814Z,8.25
2017-07-05T01:38:21.793Z,7.40
2017-07-05T01:40:49.918Z,7.85
2017-07-05T01:43:18.014Z,10.38
2017-07-05T01:45:46.150Z,7.55
2017-07-05T01:48:15.000Z,9.07
2017-07-05T01:50:43.109Z,7.68
2017-07-05T01:53:11.356Z,10.57
2017-07-05T01:55:39.449Z,7.22
2017-07-05T01:58:07.553Z,7.20
2017-07-05T02:00:35.792Z,8.35
2017-07-05T02:03:03.901Z,9.05
2017-07-05T02:05:33.231Z,7.97
2017-07-05T02:08:01.372Z,7.78
2017-07-05T02:10:29.465Z,7.87
2017-07-05T02:12:58.326Z,8.90
2017-07-05T02:15:26.549Z,8.40
2017-07-05T02:17:55.416Z,10.85
2017-07-05T02:20:23.549Z,8.45
2017-07-05T02:22:51.643Z,8.93
2017-07-05T02:25:19.733Z,10.60
2017-07-05T02:27:47.954Z,8.95
2017-07-05T02:30:16.810Z,9.48
2017-07-05T02:32:44.964Z,9.13
2017-07-05T02:35:13.056Z,8.52
2017-07-05T02:37:41.156Z,10.35
2017-07-05T02:40:09.288Z,8.98
2017-07-05T02:42:37.383Z,8.73
2017-07-05T02:45:05.484Z,9.48
2017-07-05T02:47:33.601Z,11.12
2017-07-05T02:50:01.833Z,10.70
2017-07-05T02:52:29.925Z,9.73
2017-07-05T02:54:58.017Z,11.57
2017-07-05T02:57:26.909Z,10.30
2017-07-05T02:59:55.006Z,9.07
2017-07-05T03:02:23.096Z,9.85
2017-07-05T03:04:51.357Z,9.00
2017-07-05T03:07:19.452Z,10.00
2017-07-05T03:09:47.577Z,9.50
2017-07-05T03:12:15.672Z,9.00
2017-07-05T03:14:44.538Z,12.32
2017-07-05T03:17:12.722Z,9.32
2017-07-05T03:19:40.860Z,9.15
2017-07-05T03:22:08.946Z,9.48
2017-07-05T03:24:37.160Z,9.50
2017-07-05T03:27:05.249Z,8.75
2017-07-05T03:29:34.148Z,9.55
2017-07-05T03:32:03.005Z,10.57
2017-07-05T03:34:31.102Z,13.85
2017-07-05T03:36:59.209Z,9.68
2017-07-05T03:39:28.079Z,12.37
2017-07-05T03:41:56.330Z,12.85
2017-07-05T03:44:24.428Z,11.30
2017-07-05T03:46:52.525Z,9.63
2017-07-05T03:49:21.418Z,8.98
2017-07-05T03:51:50.269Z,10.48
2017-07-05T03:54:18.405Z,10.25
2017-07-05T03:56:46.498Z,9.80
2017-07-05T03:59:14.598Z,8.98
2017-07-05T04:01:42.846Z,11.55
2017-07-05T04:04:10.934Z,12.50
2017-07-05T04:06:39.093Z,13.35
2017-07-05T04:09:07.193Z,11.10
2017-07-05T04:11:35.285Z,13.38
2017-07-05T04:14:03.408Z,11.90
2017-07-05T04:16:32.269Z,10.25
2017-07-05T04:19:00.525Z,11.88
2017-07-05T04:21:28.627Z,11.15
2017-07-05T04:23:56.774Z,15.80
2017-07-05T04:26:24.876Z,10.40
2017-07-05T04:28:52.978Z,11.00
2017-07-05T04:31:21.124Z,12.18
2017-07-05T04:33:49.232Z,10.80
2017-07-05T04:36:17.332Z,13.02
2017-07-05T04:38:45.572Z,15.63
2017-07-05T04:41:13.662Z,12.35
2017-07-05T04:43:41.925Z,15.18
2017-07-05T04:46:10.026Z,10.90
2017-07-05T04:48:38.890Z,11.90
2017-07-05T04:51:07.009Z,12.55
2017-07-05T04:53:35.868Z,13.50
2017-07-05T04:56:04.015Z,11.88
2017-07-05T04:58:32.115Z,14.18
2017-07-05T05:01:00.220Z,13.02
2017-07-05T05:03:28.385Z,16.15
2017-07-05T05:05:56.509Z,13.05
2017-07-05T05:08:24.613Z,13.07
2017-07-05T05:10:52.852Z,12.82
2017-07-05T05:13:21.725Z,12.95
2017-07-05T05:15:49.854Z,13.95
2017-07-05T05:18:17.980Z,13.30
2017-07-05T05:20:46.879Z,13.55
2017-07-05T05:23:15.001Z,11.38
2017-07-05T05:25:43.107Z,15.18
2017-07-05T05:28:11.352Z,15.35
2017-07-05T05:30:39.484Z,21.20
2017-07-05T05:33:08.384Z,20.48
2017-07-05T05:35:36.452Z,13.30
2017-07-05T05:38:04.589Z,11.88
2017-07-05T05:40:32.685Z,14.05
2017-07-05T05:43:00.920Z,14.98
2017-07-05T05:45:30.274Z,14.52
2017-07-05T05:47:59.151Z,16.08
2017-07-05T05:50:27.305Z,12.13
2017-07-05T05:52:55.418Z,12.35
2017-07-05T05:55:23.542Z,15.48
2017-07-05T05:57:51.651Z,13.52
2017-07-05T06:00:19.897Z,13.02
2017-07-05T06:02:48.038Z,11.82
2017-07-05T06:05:16.157Z,13.80
2017-07-05T06:07:44.302Z,16.37
2017-07-05T06:10:12.412Z,12.43
2017-07-05T06:12:40.520Z,11.43
2017-07-05T06:15:08.661Z,16.48
2017-07-05T06:17:36.772Z,15.57
2017-07-05T06:20:04.877Z,21.55
2017-07-05T06:22:33.148Z,15.43
2017-07-05T06:25:01.245Z,16.40
2017-07-05T06:27:29.362Z,11.93
2017-07-05T06:29:57.483Z,9.40
2017-07-05T06:32:25.595Z,10.75
2017-07-05T06:34:53.832Z,18.33
2017-07-05T06:37:21.932Z,10.00
2017-07-05T06:39:50.033Z,14.13
2017-07-05T06:42:18.918Z,10.50
2017-07-05T06:44:47.813Z,10.10
2017-07-05T06:47:15.927Z,11.27
2017-07-05T06:49:44.048Z,13.47
2017-07-05T06:52:12.285Z,10.73
2017-07-05T06:54:40.413Z,10.77
2017-07-05T06:57:08.550Z,9.23
2017-07-05T06:59:36.653Z,11.70
2017-07-05T07:02:04.794Z,11.57
2017-07-05T07:04:32.894Z,9.73
2017-07-05T07:07:00.983Z,16.00
2017-07-05T07:09:29.233Z,12.13
2017-07-05T07:11:57.332Z,9.67
2017-07-05T07:14:25.464Z,12.00
2017-07-05T07:16:53.565Z,10.03
2017-07-05T07:19:21.735Z,8.30
2017-07-05T07:21:49.824Z,8.17
2017-07-05T07:24:17.925Z,7.50
2017-07-05T07:26:46.046Z,7.03
2017-07-05T07:29:14.134Z,7.33
2017-07-05T07:31:42.273Z,6.40
2017-07-05T07:34:10.372Z,5.90
2017-07-05T07:36:38.474Z,9.90
2017-07-05T07:39:06.704Z,6.43
2017-07-05T07:41:34.791Z,5.97
2017-07-05T07:44:03.671Z,6.43
2017-07-05T07:46:31.762Z,6.30
2017-07-05T07:49:00.636Z,11.73
2017-07-05T07:51:28.754Z,6.30
2017-07-05T07:53:56.853Z,10.00
2017-07-05T07:56:25.096Z,6.97
2017-07-05T07:58:53.197Z,6.30
2017-07-05T08:01:21.304Z,8.00
2017-07-05T08:03:50.633Z,5.13
2017-07-05T08:06:18.733Z,6.83
2017-07-05T08:08:47.609Z,7.17
2017-07-05T08:11:15.843Z,6.37
2017-07-05T08:13:43.931Z,8.97
2017-07-05T08:16:12.056Z,5.33
2017-07-05T08:18:40.151Z,6.57
2017-07-05T08:21:08.246Z,5.53
2017-07-05T08:23:36.381Z,4.57
2017-07-05T08:26:04.472Z,5.73
2017-07-05T08:28:33.500Z,6.20
2017-07-05T08:31:01.582Z,4.47
2017-07-05T08:33:29.695Z,6.40
2017-07-05T08:35:57.825Z,5.87
2017-07-05T08:38:25.941Z,4.30
2017-07-05T08:40:54.024Z,6.10
2017-07-05T08:43:22.161Z,4.77
2017-07-05T08:45:50.253Z,4.40
2017-07-05T08:48:18.360Z,8.03
2017-07-05T08:50:46.587Z,4.40
2017-07-05T08:53:14.765Z,9.33
2017-07-05T08:55:42.892Z,4.47
2017-07-05T08:58:10.991Z,4.00
2017-07-05T09:00:39.133Z,6.90
2017-07-05T09:03:07.362Z,4.60
2017-07-05T09:05:35.458Z,7.83
2017-07-05T09:08:03.585Z,5.47
2017-07-05T09:10:31.697Z,5.20
2017-07-05T09:12:59.797Z,4.50
2017-07-05T09:15:27.925Z,7.37
2017-07-05T09:17:56.026Z,6.90
2017-07-05T09:20:24.121Z,7.37
2017-07-05T09:22:52.352Z,5.90
2017-07-05T09:25:20.445Z,7.10
2017-07-05T09:27:49.346Z,6.03
2017-07-05T09:30:18.198Z,4.20
2017-07-05T09:32:46.294Z,5.90
2017-07-05T09:35:14.418Z,5.80
2017-07-05T09:37:42.514Z,5.77
2017-07-05T09:40:10.744Z,6.77
2017-07-05T09:42:39.606Z,5.63
2017-07-05T09:45:07.744Z,6.40
2017-07-05T09:47:35.837Z,4.70
2017-07-05T09:50:03.913Z,6.97
2017-07-05T09:52:32.029Z,6.43
2017-07-05T09:55:00.277Z,5.27
2017-07-05T09:57:28.360Z,5.30
2017-07-05T09:59:57.598Z,4.60
2017-07-05T10:02:25.716Z,5.77
2017-07-05T10:04:53.812Z,4.30
2017-07-05T10:07:21.936Z,4.63
2017-07-05T10:09:50.797Z,3.93
2017-07-05T10:12:18.886Z,5.80
